Reykjavik, Iceland

11:26 AM GMT on October 23, 2014 (GMT +0000)
Home of TF3ARI | Change Station
CLOSE
Current Station
Personal Weather Station
Location: Reykjavik, Breidholt
Elevation: 420 ft
Nearby Weather Stations

Elev 420 ft 64.09 °N, 21.82 °W | Updated 3 seconds ago

Light Rain
Light Rain
36.9 °F
Feels Like 37 °F
N
3.0
Wind Variable Wind from SSE
Gusts 3.0 mph

Today
High -- | Low -- °F
--% Chance of Precip.
Yesterday
High -- | Low -- °F
Precip. -- in
8:41 AM 5:40 PM
Waning Crescent, 0% visible
Pressure 29.03 in
Visibility 6.2 miles
Clouds Few 1800 ft
Scattered Clouds 2600 ft
Mostly Cloudy 3700 ft
Windchill 37 °F
Dew Point 36 °F
Humidity 96%
Rainfall 0.07 in
Snow Depth Not available.
UV 0 out of 12
Pollen Not available.
Air Quality Not available.
Flu Activity Not available.
METAR BIRK 231100Z 17005KT 9999 -RA FEW018 SCT026 BKN037 03/02 Q0983

More Conditions Fewer Conditions

Pressure 29.03 in
Visibility 6.2 miles
Clouds Few 1800 ft
Scattered Clouds 2600 ft
Mostly Cloudy 3700 ft
Windchill 37 °F
Dew Point 36 °F
Humidity 96%
Rainfall 0.07 in
Snow Depth Not available.
UV 0 out of 12
Pollen Not available.
Air Quality Not available.
Flu Activity Not available.
METAR BIRK 231100Z 17005KT 9999 -RA FEW018 SCT026 BKN037 03/02 Q0983

More Conditions Fewer Conditions

10-Day Weather Forecast

Almanac

Astronomy

Oct. 23, 2014 Rise Set
Actual Time 8:41 AM GMT 5:40 PM GMT
Civil Twilight 7:51 AM GMT 6:30 PM GMT
Nautical Twilight 6:55 AM GMT 7:26 PM GMT
Astronomical Twilight 6:00 AM GMT 8:21 PM GMT
Moon 8:01 AM GMT 5:38 PM GMT
Length of Visible Light 10h 39m
Length of Day
8h 58m
Tomorrow will be 6m 29s shorter.
Waning Crescent, 0% of the Moon is Illuminated
Today
Waning Crescent
Oct 23
New
Oct 30
First Quarter
Nov 6
Full
Nov 14
Last Quarter

Yesterday's Extremes

Country Highs Country Lows

Community

WunderPhotos

Upload Photos

1,764,206 photos uploaded!

Nearby

Snow Depth

Not available.

Earthquake Activity

City Distance Mag. Time & Date
No recent earthquake activity has been reported nearby.
Minimum magnitude displayed is 2.5.

Coastal Water Temperatures

Place Temperature
No Stations Reporting

Nearby Weather Stations